sensor_id;sensor_type;location;lat;lon;timestamp;temperature;humidity
24144;DHT22;12307;50.828;6.080;2022-07-23T00:00:50;24.30;67.00
24144;DHT22;12307;50.828;6.080;2022-07-23T00:03:15;24.30;67.00
24144;DHT22;12307;50.828;6.080;2022-07-23T00:05:41;24.30;67.00
24144;DHT22;12307;50.828;6.080;2022-07-23T00:08:07;24.20;67.00
24144;DHT22;12307;50.828;6.080;2022-07-23T00:10:33;24.30;67.10
24144;DHT22;12307;50.828;6.080;2022-07-23T00:12:59;24.20;67.00
24144;DHT22;12307;50.828;6.080;2022-07-23T00:15:26;24.20;67.00
24144;DHT22;12307;50.828;6.080;2022-07-23T00:17:52;24.20;67.00
24144;DHT22;12307;50.828;6.080;2022-07-23T00:20:18;24.20;67.00
24144;DHT22;12307;50.828;6.080;2022-07-23T00:22:47;24.20;67.00
24144;DHT22;12307;50.828;6.080;2022-07-23T00:25:13;24.20;67.00
24144;DHT22;12307;50.828;6.080;2022-07-23T00:27:38;24.30;67.10
24144;DHT22;12307;50.828;6.080;2022-07-23T00:30:05;24.20;67.00
24144;DHT22;12307;50.828;6.080;2022-07-23T00:32:32;24.20;67.00
24144;DHT22;12307;50.828;6.080;2022-07-23T00:34:58;24.20;67.00
24144;DHT22;12307;50.828;6.080;2022-07-23T00:37:24;24.20;67.00
24144;DHT22;12307;50.828;6.080;2022-07-23T00:39:50;24.30;67.10
24144;DHT22;12307;50.828;6.080;2022-07-23T00:42:18;24.20;67.10
24144;DHT22;12307;50.828;6.080;2022-07-23T00:44:44;24.30;67.10
24144;DHT22;12307;50.828;6.080;2022-07-23T00:47:10;24.20;67.40
24144;DHT22;12307;50.828;6.080;2022-07-23T00:49:37;24.20;67.10
24144;DHT22;12307;50.828;6.080;2022-07-23T00:52:03;24.20;67.10
24144;DHT22;12307;50.828;6.080;2022-07-23T00:54:29;24.20;67.00
24144;DHT22;12307;50.828;6.080;2022-07-23T00:56:54;24.20;67.10
24144;DHT22;12307;50.828;6.080;2022-07-23T00:59:20;24.20;67.10
24144;DHT22;12307;50.828;6.080;2022-07-23T01:01:46;24.20;67.10
24144;DHT22;12307;50.828;6.080;2022-07-23T01:04:14;24.20;67.10
24144;DHT22;12307;50.828;6.080;2022-07-23T01:06:43;24.20;67.10
24144;DHT22;12307;50.828;6.080;2022-07-23T01:09:10;24.20;67.10
24144;DHT22;12307;50.828;6.080;2022-07-23T01:11:36;24.20;67.10
24144;DHT22;12307;50.828;6.080;2022-07-23T01:14:11;24.20;67.20
24144;DHT22;12307;50.828;6.080;2022-07-23T01:16:37;24.20;67.10
24144;DHT22;12307;50.828;6.080;2022-07-23T01:19:03;24.20;67.10
24144;DHT22;12307;50.828;6.080;2022-07-23T01:21:33;24.20;67.20
24144;DHT22;12307;50.828;6.080;2022-07-23T01:24:01;24.20;67.20
24144;DHT22;12307;50.828;6.080;2022-07-23T01:26:26;24.20;67.10
24144;DHT22;12307;50.828;6.080;2022-07-23T01:28:52;24.20;67.20
24144;DHT22;12307;50.828;6.080;2022-07-23T01:31:18;24.20;67.10
24144;DHT22;12307;50.828;6.080;2022-07-23T01:33:44;24.20;67.20
24144;DHT22;12307;50.828;6.080;2022-07-23T01:36:10;24.20;67.20
24144;DHT22;12307;50.828;6.080;2022-07-23T01:38:36;24.20;67.10
24144;DHT22;12307;50.828;6.080;2022-07-23T01:41:03;24.20;67.20
24144;DHT22;12307;50.828;6.080;2022-07-23T01:43:30;24.20;67.30
24144;DHT22;12307;50.828;6.080;2022-07-23T01:45:55;24.20;67.20
24144;DHT22;12307;50.828;6.080;2022-07-23T01:48:21;24.20;67.30
24144;DHT22;12307;50.828;6.080;2022-07-23T01:50:47;24.20;67.30
24144;DHT22;12307;50.828;6.080;2022-07-23T01:53:13;24.20;67.30
24144;DHT22;12307;50.828;6.080;2022-07-23T01:55:39;24.20;67.30
24144;DHT22;12307;50.828;6.080;2022-07-23T01:58:06;24.20;67.30
24144;DHT22;12307;50.828;6.080;2022-07-23T02:00:32;24.20;67.30
24144;DHT22;12307;50.828;6.080;2022-07-23T02:02:58;24.20;67.30
24144;DHT22;12307;50.828;6.080;2022-07-23T02:05:24;24.20;67.30
24144;DHT22;12307;50.828;6.080;2022-07-23T02:07:50;24.10;67.30
24144;DHT22;12307;50.828;6.080;2022-07-23T02:10:16;24.20;67.30
24144;DHT22;12307;50.828;6.080;2022-07-23T02:12:41;24.10;68.10
24144;DHT22;12307;50.828;6.080;2022-07-23T02:15:09;24.10;67.20
24144;DHT22;12307;50.828;6.080;2022-07-23T02:17:35;24.10;67.40
24144;DHT22;12307;50.828;6.080;2022-07-23T02:20:01;24.10;67.30
24144;DHT22;12307;50.828;6.080;2022-07-23T02:22:26;24.10;67.30
24144;DHT22;12307;50.828;6.080;2022-07-23T02:24:52;24.10;67.30
24144;DHT22;12307;50.828;6.080;2022-07-23T02:27:18;24.10;67.30
24144;DHT22;12307;50.828;6.080;2022-07-23T02:29:43;24.10;67.30
24144;DHT22;12307;50.828;6.080;2022-07-23T02:32:10;24.20;67.30
24144;DHT22;12307;50.828;6.080;2022-07-23T02:34:36;24.10;67.30
24144;DHT22;12307;50.828;6.080;2022-07-23T02:37:02;24.10;67.30
24144;DHT22;12307;50.828;6.080;2022-07-23T02:39:27;24.10;67.30
24144;DHT22;12307;50.828;6.080;2022-07-23T02:41:53;24.10;67.30
24144;DHT22;12307;50.828;6.080;2022-07-23T02:44:19;24.10;67.40
24144;DHT22;12307;50.828;6.080;2022-07-23T02:46:44;24.10;67.40
24144;DHT22;12307;50.828;6.080;2022-07-23T02:49:11;24.10;67.40
24144;DHT22;12307;50.828;6.080;2022-07-23T02:51:37;24.10;67.30
24144;DHT22;12307;50.828;6.080;2022-07-23T02:54:03;24.10;67.40
24144;DHT22;12307;50.828;6.080;2022-07-23T02:56:29;24.10;67.30
24144;DHT22;12307;50.828;6.080;2022-07-23T02:58:54;24.10;67.40
24144;DHT22;12307;50.828;6.080;2022-07-23T03:01:20;24.10;67.40
24144;DHT22;12307;50.828;6.080;2022-07-23T03:03:46;24.10;67.40
24144;DHT22;12307;50.828;6.080;2022-07-23T03:06:13;24.10;67.40
24144;DHT22;12307;50.828;6.080;2022-07-23T03:08:39;24.10;67.40
24144;DHT22;12307;50.828;6.080;2022-07-23T03:11:04;24.10;67.50
24144;DHT22;12307;50.828;6.080;2022-07-23T03:13:36;24.10;67.40
24144;DHT22;12307;50.828;6.080;2022-07-23T03:16:02;24.10;67.50
24144;DHT22;12307;50.828;6.080;2022-07-23T03:18:27;24.00;67.40
24144;DHT22;12307;50.828;6.080;2022-07-23T03:20:53;24.10;68.20
24144;DHT22;12307;50.828;6.080;2022-07-23T03:23:20;24.00;67.40
24144;DHT22;12307;50.828;6.080;2022-07-23T03:25:46;24.10;67.40
24144;DHT22;12307;50.828;6.080;2022-07-23T03:28:15;24.10;67.40
24144;DHT22;12307;50.828;6.080;2022-07-23T03:30:41;24.00;67.40
24144;DHT22;12307;50.828;6.080;2022-07-23T03:33:06;24.00;67.40
24144;DHT22;12307;50.828;6.080;2022-07-23T03:35:32;24.10;67.40
24144;DHT22;12307;50.828;6.080;2022-07-23T03:37:58;24.00;67.40
24144;DHT22;12307;50.828;6.080;2022-07-23T03:40:25;24.00;67.40
24144;DHT22;12307;50.828;6.080;2022-07-23T03:42:50;24.00;67.40
24144;DHT22;12307;50.828;6.080;2022-07-23T03:45:16;24.10;67.50
24144;DHT22;12307;50.828;6.080;2022-07-23T03:47:42;24.00;67.40
24144;DHT22;12307;50.828;6.080;2022-07-23T03:50:09;24.00;67.40
24144;DHT22;12307;50.828;6.080;2022-07-23T03:52:35;24.00;67.40
24144;DHT22;12307;50.828;6.080;2022-07-23T03:55:01;24.00;67.50
24144;DHT22;12307;50.828;6.080;2022-07-23T03:57:28;24.00;67.40
24144;DHT22;12307;50.828;6.080;2022-07-23T03:59:53;24.00;67.50
24144;DHT22;12307;50.828;6.080;2022-07-23T04:02:19;24.00;67.40
24144;DHT22;12307;50.828;6.080;2022-07-23T04:04:45;24.00;67.40
24144;DHT22;12307;50.828;6.080;2022-07-23T04:07:12;24.00;67.40
24144;DHT22;12307;50.828;6.080;2022-07-23T04:09:37;24.00;67.50
24144;DHT22;12307;50.828;6.080;2022-07-23T04:12:04;24.00;67.60
24144;DHT22;12307;50.828;6.080;2022-07-23T04:14:31;24.00;67.50
24144;DHT22;12307;50.828;6.080;2022-07-23T04:16:56;24.00;67.40
24144;DHT22;12307;50.828;6.080;2022-07-23T04:19:22;24.00;67.40
24144;DHT22;12307;50.828;6.080;2022-07-23T04:21:48;24.00;67.50
24144;DHT22;12307;50.828;6.080;2022-07-23T04:24:13;24.00;67.40
24144;DHT22;12307;50.828;6.080;2022-07-23T04:26:39;24.00;67.60
24144;DHT22;12307;50.828;6.080;2022-07-23T04:29:05;24.00;67.50
24144;DHT22;12307;50.828;6.080;2022-07-23T04:31:32;24.00;67.40
24144;DHT22;12307;50.828;6.080;2022-07-23T04:33:57;24.00;67.40
24144;DHT22;12307;50.828;6.080;2022-07-23T04:36:23;24.00;67.50
24144;DHT22;12307;50.828;6.080;2022-07-23T04:38:49;24.00;67.50
24144;DHT22;12307;50.828;6.080;2022-07-23T04:41:14;24.00;67.60
24144;DHT22;12307;50.828;6.080;2022-07-23T04:43:40;24.00;67.50
24144;DHT22;12307;50.828;6.080;2022-07-23T04:46:06;24.00;67.60
24144;DHT22;12307;50.828;6.080;2022-07-23T04:48:33;24.00;67.60
24144;DHT22;12307;50.828;6.080;2022-07-23T04:50:58;24.00;67.60
24144;DHT22;12307;50.828;6.080;2022-07-23T04:53:24;24.00;67.50
24144;DHT22;12307;50.828;6.080;2022-07-23T04:55:50;24.00;67.60
24144;DHT22;12307;50.828;6.080;2022-07-23T04:58:16;24.00;67.50
24144;DHT22;12307;50.828;6.080;2022-07-23T05:00:41;24.00;67.70
24144;DHT22;12307;50.828;6.080;2022-07-23T05:03:07;24.00;67.50
24144;DHT22;12307;50.828;6.080;2022-07-23T05:05:34;24.00;67.40
24144;DHT22;12307;50.828;6.080;2022-07-23T05:08:01;24.00;67.60
24144;DHT22;12307;50.828;6.080;2022-07-23T05:10:27;24.00;67.60
24144;DHT22;12307;50.828;6.080;2022-07-23T05:12:52;24.00;67.60
24144;DHT22;12307;50.828;6.080;2022-07-23T05:15:18;24.00;67.90
24144;DHT22;12307;50.828;6.080;2022-07-23T05:17:44;24.00;67.60
24144;DHT22;12307;50.828;6.080;2022-07-23T05:20:10;24.00;67.60
24144;DHT22;12307;50.828;6.080;2022-07-23T05:22:37;24.00;67.60
24144;DHT22;12307;50.828;6.080;2022-07-23T05:25:03;24.00;67.60
24144;DHT22;12307;50.828;6.080;2022-07-23T05:27:30;24.00;67.60
24144;DHT22;12307;50.828;6.080;2022-07-23T05:29:56;24.00;67.40
24144;DHT22;12307;50.828;6.080;2022-07-23T05:32:21;24.00;67.60
24144;DHT22;12307;50.828;6.080;2022-07-23T05:34:47;24.00;67.60
24144;DHT22;12307;50.828;6.080;2022-07-23T05:37:13;24.00;67.60
24144;DHT22;12307;50.828;6.080;2022-07-23T05:39:40;24.00;67.60
24144;DHT22;12307;50.828;6.080;2022-07-23T05:42:06;24.00;67.60
24144;DHT22;12307;50.828;6.080;2022-07-23T05:44:31;24.00;67.70
24144;DHT22;12307;50.828;6.080;2022-07-23T05:46:57;24.00;67.60
24144;DHT22;12307;50.828;6.080;2022-07-23T05:49:23;24.00;67.60
24144;DHT22;12307;50.828;6.080;2022-07-23T05:51:49;24.00;67.60
24144;DHT22;12307;50.828;6.080;2022-07-23T05:54:15;24.00;67.60
24144;DHT22;12307;50.828;6.080;2022-07-23T05:56:42;24.00;67.70
24144;DHT22;12307;50.828;6.080;2022-07-23T05:59:07;24.00;67.60
24144;DHT22;12307;50.828;6.080;2022-07-23T06:01:33;24.00;67.60
24144;DHT22;12307;50.828;6.080;2022-07-23T06:03:59;24.00;67.60
24144;DHT22;12307;50.828;6.080;2022-07-23T06:06:25;24.00;67.60
24144;DHT22;12307;50.828;6.080;2022-07-23T06:08:50;24.00;67.70
24144;DHT22;12307;50.828;6.080;2022-07-23T06:11:16;24.00;67.60
24144;DHT22;12307;50.828;6.080;2022-07-23T06:13:43;24.00;67.60
24144;DHT22;12307;50.828;6.080;2022-07-23T06:16:09;24.00;67.60
24144;DHT22;12307;50.828;6.080;2022-07-23T06:18:35;24.00;67.60
24144;DHT22;12307;50.828;6.080;2022-07-23T06:21:00;24.00;67.60
24144;DHT22;12307;50.828;6.080;2022-07-23T06:23:26;24.00;67.80
24144;DHT22;12307;50.828;6.080;2022-07-23T06:25:52;24.00;67.70
24144;DHT22;12307;50.828;6.080;2022-07-23T06:28:18;24.00;67.70
24144;DHT22;12307;50.828;6.080;2022-07-23T06:30:45;24.00;67.70
24144;DHT22;12307;50.828;6.080;2022-07-23T06:33:10;24.00;67.60
24144;DHT22;12307;50.828;6.080;2022-07-23T06:35:37;24.00;67.70
24144;DHT22;12307;50.828;6.080;2022-07-23T06:38:03;24.00;67.60
24144;DHT22;12307;50.828;6.080;2022-07-23T06:40:29;24.00;67.60
24144;DHT22;12307;50.828;6.080;2022-07-23T06:42:55;24.00;67.60
24144;DHT22;12307;50.828;6.080;2022-07-23T06:45:20;24.00;67.60
24144;DHT22;12307;50.828;6.080;2022-07-23T06:47:47;24.00;67.60
24144;DHT22;12307;50.828;6.080;2022-07-23T06:50:13;24.00;67.60
24144;DHT22;12307;50.828;6.080;2022-07-23T06:52:39;24.00;67.60
24144;DHT22;12307;50.828;6.080;2022-07-23T06:55:05;24.00;67.60
24144;DHT22;12307;50.828;6.080;2022-07-23T06:57:31;24.00;67.70
24144;DHT22;12307;50.828;6.080;2022-07-23T06:59:56;24.00;67.50
24144;DHT22;12307;50.828;6.080;2022-07-23T07:02:22;24.00;67.70
24144;DHT22;12307;50.828;6.080;2022-07-23T07:04:49;24.00;67.70
24144;DHT22;12307;50.828;6.080;2022-07-23T07:07:17;24.00;67.60
24144;DHT22;12307;50.828;6.080;2022-07-23T07:09:44;24.00;67.60
24144;DHT22;12307;50.828;6.080;2022-07-23T07:12:10;24.00;67.70
24144;DHT22;12307;50.828;6.080;2022-07-23T07:14:37;24.00;67.70
24144;DHT22;12307;50.828;6.080;2022-07-23T07:17:03;24.00;67.70
24144;DHT22;12307;50.828;6.080;2022-07-23T07:19:29;24.00;67.60
24144;DHT22;12307;50.828;6.080;2022-07-23T07:21:56;24.00;67.70
24144;DHT22;12307;50.828;6.080;2022-07-23T07:24:21;24.00;67.70
24144;DHT22;12307;50.828;6.080;2022-07-23T07:26:47;24.00;67.70
24144;DHT22;12307;50.828;6.080;2022-07-23T07:29:13;24.00;67.60
24144;DHT22;12307;50.828;6.080;2022-07-23T07:31:39;24.00;67.70
24144;DHT22;12307;50.828;6.080;2022-07-23T07:34:04;24.00;67.70
24144;DHT22;12307;50.828;6.080;2022-07-23T07:36:30;24.00;67.60
24144;DHT22;12307;50.828;6.080;2022-07-23T07:38:57;24.00;67.60
24144;DHT22;12307;50.828;6.080;2022-07-23T07:41:23;24.00;67.60
24144;DHT22;12307;50.828;6.080;2022-07-23T07:43:49;24.00;68.40
24144;DHT22;12307;50.828;6.080;2022-07-23T07:46:18;24.00;67.60
24144;DHT22;12307;50.828;6.080;2022-07-23T07:48:44;24.00;67.60
24144;DHT22;12307;50.828;6.080;2022-07-23T07:51:10;24.00;67.60
24144;DHT22;12307;50.828;6.080;2022-07-23T07:53:35;24.00;67.50
24144;DHT22;12307;50.828;6.080;2022-07-23T07:56:03;24.00;67.60
24144;DHT22;12307;50.828;6.080;2022-07-23T07:58:29;24.00;67.40
24144;DHT22;12307;50.828;6.080;2022-07-23T08:00:54;24.00;67.40
24144;DHT22;12307;50.828;6.080;2022-07-23T08:03:20;24.00;67.40
24144;DHT22;12307;50.828;6.080;2022-07-23T08:05:46;24.10;67.40
24144;DHT22;12307;50.828;6.080;2022-07-23T08:08:12;24.10;67.40
24144;DHT22;12307;50.828;6.080;2022-07-23T08:10:40;24.10;67.40
24144;DHT22;12307;50.828;6.080;2022-07-23T08:13:07;24.00;67.30
24144;DHT22;12307;50.828;6.080;2022-07-23T08:15:33;24.00;67.40
24144;DHT22;12307;50.828;6.080;2022-07-23T08:17:59;24.10;67.30
24144;DHT22;12307;50.828;6.080;2022-07-23T08:20:25;24.00;67.30
24144;DHT22;12307;50.828;6.080;2022-07-23T08:22:53;24.00;67.40
24144;DHT22;12307;50.828;6.080;2022-07-23T08:25:22;24.00;67.40
24144;DHT22;12307;50.828;6.080;2022-07-23T08:27:49;24.10;67.40
24144;DHT22;12307;50.828;6.080;2022-07-23T08:30:16;24.10;67.40
24144;DHT22;12307;50.828;6.080;2022-07-23T08:32:50;24.00;67.40
24144;DHT22;12307;50.828;6.080;2022-07-23T08:35:16;24.10;67.80
24144;DHT22;12307;50.828;6.080;2022-07-23T08:37:42;24.10;67.60
24144;DHT22;12307;50.828;6.080;2022-07-23T08:40:09;24.10;67.40
24144;DHT22;12307;50.828;6.080;2022-07-23T08:42:35;24.10;67.40
24144;DHT22;12307;50.828;6.080;2022-07-23T08:45:02;24.10;67.30
24144;DHT22;12307;50.828;6.080;2022-07-23T08:47:30;24.10;67.30
24144;DHT22;12307;50.828;6.080;2022-07-23T08:49:56;24.10;67.40
24144;DHT22;12307;50.828;6.080;2022-07-23T08:52:24;24.10;67.30
24144;DHT22;12307;50.828;6.080;2022-07-23T08:54:50;24.10;67.30
24144;DHT22;12307;50.828;6.080;2022-07-23T08:57:17;24.10;67.30
24144;DHT22;12307;50.828;6.080;2022-07-23T08:59:42;24.20;67.30
24144;DHT22;12307;50.828;6.080;2022-07-23T09:02:08;24.20;67.30
24144;DHT22;12307;50.828;6.080;2022-07-23T09:04:36;24.20;67.30
24144;DHT22;12307;50.828;6.080;2022-07-23T09:07:02;24.20;67.30
24144;DHT22;12307;50.828;6.080;2022-07-23T09:09:28;24.20;67.20
24144;DHT22;12307;50.828;6.080;2022-07-23T09:12:03;24.20;67.20
24144;DHT22;12307;50.828;6.080;2022-07-23T09:14:36;24.20;67.20
24144;DHT22;12307;50.828;6.080;2022-07-23T09:17:09;24.20;67.10
24144;DHT22;12307;50.828;6.080;2022-07-23T09:19:36;24.20;67.20
24144;DHT22;12307;50.828;6.080;2022-07-23T09:22:20;24.20;67.10
24144;DHT22;12307;50.828;6.080;2022-07-23T09:25:05;24.30;67.20
24144;DHT22;12307;50.828;6.080;2022-07-23T09:27:49;24.30;67.20
24144;DHT22;12307;50.828;6.080;2022-07-23T09:30:16;24.30;67.30
24144;DHT22;12307;50.828;6.080;2022-07-23T09:32:42;24.30;67.30
24144;DHT22;12307;50.828;6.080;2022-07-23T09:35:09;24.30;67.10
24144;DHT22;12307;50.828;6.080;2022-07-23T09:37:34;24.30;66.90
24144;DHT22;12307;50.828;6.080;2022-07-23T09:40:04;24.30;67.00
24144;DHT22;12307;50.828;6.080;2022-07-23T09:42:30;24.30;67.00
24144;DHT22;12307;50.828;6.080;2022-07-23T09:44:57;24.30;66.90
24144;DHT22;12307;50.828;6.080;2022-07-23T09:47:25;24.30;67.00
24144;DHT22;12307;50.828;6.080;2022-07-23T09:49:58;24.30;67.00
24144;DHT22;12307;50.828;6.080;2022-07-23T09:52:28;24.30;67.00
24144;DHT22;12307;50.828;6.080;2022-07-23T09:54:58;24.40;67.10
24144;DHT22;12307;50.828;6.080;2022-07-23T09:57:25;24.40;66.90
24144;DHT22;12307;50.828;6.080;2022-07-23T09:59:52;24.40;66.90
24144;DHT22;12307;50.828;6.080;2022-07-23T10:02:18;24.40;66.90
24144;DHT22;12307;50.828;6.080;2022-07-23T10:04:44;24.40;66.90
24144;DHT22;12307;50.828;6.080;2022-07-23T10:07:10;24.50;66.90
24144;DHT22;12307;50.828;6.080;2022-07-23T10:09:39;24.50;66.90
24144;DHT22;12307;50.828;6.080;2022-07-23T10:12:10;24.50;66.90
24144;DHT22;12307;50.828;6.080;2022-07-23T10:14:56;24.50;66.90
24144;DHT22;12307;50.828;6.080;2022-07-23T10:17:22;24.50;66.70
24144;DHT22;12307;50.828;6.080;2022-07-23T10:19:48;24.50;66.60
24144;DHT22;12307;50.828;6.080;2022-07-23T10:22:18;24.50;66.50
24144;DHT22;12307;50.828;6.080;2022-07-23T10:24:53;24.50;66.60
24144;DHT22;12307;50.828;6.080;2022-07-23T10:27:43;24.50;66.50
24144;DHT22;12307;50.828;6.080;2022-07-23T10:30:16;24.50;67.30
24144;DHT22;12307;50.828;6.080;2022-07-23T10:32:50;24.60;66.80
24144;DHT22;12307;50.828;6.080;2022-07-23T10:35:25;24.60;66.90
24144;DHT22;12307;50.828;6.080;2022-07-23T10:37:56;24.60;66.50
24144;DHT22;12307;50.828;6.080;2022-07-23T10:40:26;24.70;66.90
24144;DHT22;12307;50.828;6.080;2022-07-23T10:42:59;24.70;66.50
24144;DHT22;12307;50.828;6.080;2022-07-23T10:45:31;24.60;66.30
24144;DHT22;12307;50.828;6.080;2022-07-23T10:48:12;24.70;66.20
24144;DHT22;12307;50.828;6.080;2022-07-23T10:50:39;24.70;66.90
24144;DHT22;12307;50.828;6.080;2022-07-23T10:53:13;24.70;66.30
24144;DHT22;12307;50.828;6.080;2022-07-23T10:55:51;24.70;66.90
24144;DHT22;12307;50.828;6.080;2022-07-23T10:58:22;24.70;68.10
24144;DHT22;12307;50.828;6.080;2022-07-23T11:00:48;24.70;66.20
24144;DHT22;12307;50.828;6.080;2022-07-23T11:03:38;24.70;66.50
24144;DHT22;12307;50.828;6.080;2022-07-23T11:06:05;24.70;66.60
24144;DHT22;12307;50.828;6.080;2022-07-23T11:08:31;24.80;67.50
24144;DHT22;12307;50.828;6.080;2022-07-23T11:11:09;24.80;66.60
24144;DHT22;12307;50.828;6.080;2022-07-23T11:13:47;24.80;67.30
24144;DHT22;12307;50.828;6.080;2022-07-23T11:16:21;24.70;67.60
24144;DHT22;12307;50.828;6.080;2022-07-23T11:19:06;24.80;66.90
24144;DHT22;12307;50.828;6.080;2022-07-23T11:21:56;24.80;66.50
24144;DHT22;12307;50.828;6.080;2022-07-23T11:24:24;24.80;68.10
24144;DHT22;12307;50.828;6.080;2022-07-23T11:29:57;24.80;68.40
24144;DHT22;12307;50.828;6.080;2022-07-23T11:32:31;24.80;66.90
24144;DHT22;12307;50.828;6.080;2022-07-23T11:34:59;24.80;67.30
24144;DHT22;12307;50.828;6.080;2022-07-23T11:37:33;24.80;67.50
24144;DHT22;12307;50.828;6.080;2022-07-23T11:40:00;24.90;66.50
24144;DHT22;12307;50.828;6.080;2022-07-23T11:42:28;24.90;66.80
24144;DHT22;12307;50.828;6.080;2022-07-23T11:44:53;24.90;67.20
24144;DHT22;12307;50.828;6.080;2022-07-23T11:47:23;24.90;66.00
24144;DHT22;12307;50.828;6.080;2022-07-23T11:49:52;24.90;66.10
24144;DHT22;12307;50.828;6.080;2022-07-23T11:52:18;24.90;65.90
24144;DHT22;12307;50.828;6.080;2022-07-23T11:54:47;24.90;65.90
24144;DHT22;12307;50.828;6.080;2022-07-23T11:57:14;24.90;66.20
24144;DHT22;12307;50.828;6.080;2022-07-23T11:59:42;24.90;66.30
24144;DHT22;12307;50.828;6.080;2022-07-23T12:02:08;24.90;66.30
24144;DHT22;12307;50.828;6.080;2022-07-23T12:04:37;24.90;66.40
24144;DHT22;12307;50.828;6.080;2022-07-23T12:07:03;24.90;66.30
24144;DHT22;12307;50.828;6.080;2022-07-23T12:09:29;24.90;66.60
24144;DHT22;12307;50.828;6.080;2022-07-23T12:11:59;24.90;66.50
24144;DHT22;12307;50.828;6.080;2022-07-23T12:14:25;24.90;66.00
24144;DHT22;12307;50.828;6.080;2022-07-23T12:17:09;24.90;66.30
24144;DHT22;12307;50.828;6.080;2022-07-23T12:19:36;24.90;66.20
24144;DHT22;12307;50.828;6.080;2022-07-23T12:22:01;24.90;66.00
24144;DHT22;12307;50.828;6.080;2022-07-23T12:24:27;25.00;66.10
24144;DHT22;12307;50.828;6.080;2022-07-23T12:27:08;24.90;66.80
24144;DHT22;12307;50.828;6.080;2022-07-23T12:29:35;24.90;66.50
24144;DHT22;12307;50.828;6.080;2022-07-23T12:32:01;25.00;65.80
24144;DHT22;12307;50.828;6.080;2022-07-23T12:34:28;25.00;66.90
24144;DHT22;12307;50.828;6.080;2022-07-23T12:36:54;25.00;66.80
24144;DHT22;12307;50.828;6.080;2022-07-23T12:39:29;25.00;66.20
24144;DHT22;12307;50.828;6.080;2022-07-23T12:41:55;25.00;66.30
24144;DHT22;12307;50.828;6.080;2022-07-23T12:44:22;25.00;66.30
24144;DHT22;12307;50.828;6.080;2022-07-23T12:46:50;25.00;65.70
24144;DHT22;12307;50.828;6.080;2022-07-23T12:49:25;25.00;65.90
24144;DHT22;12307;50.828;6.080;2022-07-23T12:51:52;25.00;65.50
24144;DHT22;12307;50.828;6.080;2022-07-23T12:54:19;25.00;65.50
24144;DHT22;12307;50.828;6.080;2022-07-23T12:56:51;25.00;65.50
24144;DHT22;12307;50.828;6.080;2022-07-23T12:59:17;25.00;65.50
24144;DHT22;12307;50.828;6.080;2022-07-23T13:01:44;25.00;65.50
24144;DHT22;12307;50.828;6.080;2022-07-23T13:04:17;25.00;65.50
24144;DHT22;12307;50.828;6.080;2022-07-23T13:06:45;25.00;65.50
24144;DHT22;12307;50.828;6.080;2022-07-23T13:09:15;25.00;65.50
24144;DHT22;12307;50.828;6.080;2022-07-23T13:11:42;25.00;65.50
24144;DHT22;12307;50.828;6.080;2022-07-23T13:14:08;25.00;65.40
24144;DHT22;12307;50.828;6.080;2022-07-23T13:16:33;25.00;65.40
24144;DHT22;12307;50.828;6.080;2022-07-23T13:19:00;25.00;65.50
24144;DHT22;12307;50.828;6.080;2022-07-23T13:21:26;25.00;65.50
24144;DHT22;12307;50.828;6.080;2022-07-23T13:23:52;25.00;65.50
24144;DHT22;12307;50.828;6.080;2022-07-23T13:26:20;25.00;65.50
24144;DHT22;12307;50.828;6.080;2022-07-23T13:28:46;25.00;65.50
24144;DHT22;12307;50.828;6.080;2022-07-23T13:31:12;25.00;65.50
24144;DHT22;12307;50.828;6.080;2022-07-23T13:33:38;24.90;65.50
24144;DHT22;12307;50.828;6.080;2022-07-23T13:36:05;24.90;65.60
24144;DHT22;12307;50.828;6.080;2022-07-23T13:38:31;24.90;65.60
24144;DHT22;12307;50.828;6.080;2022-07-23T13:40:56;24.90;65.60
24144;DHT22;12307;50.828;6.080;2022-07-23T13:43:25;24.90;65.80
24144;DHT22;12307;50.828;6.080;2022-07-23T13:45:52;24.90;65.80
24144;DHT22;12307;50.828;6.080;2022-07-23T13:48:19;24.90;65.50
24144;DHT22;12307;50.828;6.080;2022-07-23T13:50:46;25.00;65.50
24144;DHT22;12307;50.828;6.080;2022-07-23T13:53:14;24.90;65.60
24144;DHT22;12307;50.828;6.080;2022-07-23T13:55:40;25.00;65.60
24144;DHT22;12307;50.828;6.080;2022-07-23T13:58:08;24.90;65.60
24144;DHT22;12307;50.828;6.080;2022-07-23T14:00:37;24.90;65.60
24144;DHT22;12307;50.828;6.080;2022-07-23T14:03:03;24.90;65.60
24144;DHT22;12307;50.828;6.080;2022-07-23T14:05:29;24.90;65.60
24144;DHT22;12307;50.828;6.080;2022-07-23T14:07:55;24.90;65.60
24144;DHT22;12307;50.828;6.080;2022-07-23T14:10:22;24.90;65.60
24144;DHT22;12307;50.828;6.080;2022-07-23T14:12:49;24.90;65.60
24144;DHT22;12307;50.828;6.080;2022-07-23T14:15:16;24.90;65.70
24144;DHT22;12307;50.828;6.080;2022-07-23T14:17:45;24.90;65.60
24144;DHT22;12307;50.828;6.080;2022-07-23T14:20:15;24.90;65.60
24144;DHT22;12307;50.828;6.080;2022-07-23T14:22:41;24.90;65.70
24144;DHT22;12307;50.828;6.080;2022-07-23T14:25:08;24.90;65.60
24144;DHT22;12307;50.828;6.080;2022-07-23T14:27:34;24.90;65.60
24144;DHT22;12307;50.828;6.080;2022-07-23T14:30:00;24.90;65.70
24144;DHT22;12307;50.828;6.080;2022-07-23T14:32:26;24.90;65.60
24144;DHT22;12307;50.828;6.080;2022-07-23T14:34:53;24.90;65.70
24144;DHT22;12307;50.828;6.080;2022-07-23T14:37:19;24.90;65.70
24144;DHT22;12307;50.828;6.080;2022-07-23T14:39:45;24.90;65.70
24144;DHT22;12307;50.828;6.080;2022-07-23T14:42:12;24.90;65.70
24144;DHT22;12307;50.828;6.080;2022-07-23T14:44:38;24.90;65.70
24144;DHT22;12307;50.828;6.080;2022-07-23T14:47:05;24.90;65.70
24144;DHT22;12307;50.828;6.080;2022-07-23T14:49:31;24.90;65.70
24144;DHT22;12307;50.828;6.080;2022-07-23T14:51:58;24.90;65.70
24144;DHT22;12307;50.828;6.080;2022-07-23T14:54:25;24.90;65.70
24144;DHT22;12307;50.828;6.080;2022-07-23T14:56:54;24.90;65.70
24144;DHT22;12307;50.828;6.080;2022-07-23T14:59:20;24.90;65.70
24144;DHT22;12307;50.828;6.080;2022-07-23T15:01:46;24.90;65.70
24144;DHT22;12307;50.828;6.080;2022-07-23T15:04:12;24.90;65.70
24144;DHT22;12307;50.828;6.080;2022-07-23T15:06:38;24.90;65.70
24144;DHT22;12307;50.828;6.080;2022-07-23T15:09:05;24.90;65.70
24144;DHT22;12307;50.828;6.080;2022-07-23T15:11:31;24.90;65.80
24144;DHT22;12307;50.828;6.080;2022-07-23T15:13:59;24.90;65.70
24144;DHT22;12307;50.828;6.080;2022-07-23T15:16:25;24.90;65.70
24144;DHT22;12307;50.828;6.080;2022-07-23T15:18:50;24.90;65.70
24144;DHT22;12307;50.828;6.080;2022-07-23T15:21:16;24.90;65.70
24144;DHT22;12307;50.828;6.080;2022-07-23T15:23:42;24.90;65.90
24144;DHT22;12307;50.828;6.080;2022-07-23T15:26:09;24.90;65.80
24144;DHT22;12307;50.828;6.080;2022-07-23T15:28:34;24.90;65.70
24144;DHT22;12307;50.828;6.080;2022-07-23T15:31:00;24.90;65.80
24144;DHT22;12307;50.828;6.080;2022-07-23T15:33:26;24.90;65.80